Portada
METAR-TAF:

METAR-TAF

Aeropuertos :

Ciudad de Kuwait, Kuwait

Aeropuerto Internacional de Kuwait

latitud: 29-13N, longitud: 047-59E, altitud: 55 m

Observación

El informe se hizo hace 33 minutos, a las 09:00 UTC
Viento 7 kt del norte
Temperatura 21°C
Humedad 35%
Presión 1017 hPa
Visibilidad 10 km o más
sin nubes por debajo de 1500 m y sin presencia de cumulonimbus.

METAR: OKBK 200900Z 01007KT CAVOK 21/05 Q1017 NOSIG

Hora: 12:33 (09:33 UTC)

Pronóstico

El informe se hizo hace 10 horas y 48 minutos, a las 22:45 UTC
Pronóstico válido del 20 a las 00 UTC al 21 a las 06 UTC
Viento 8 kt del norte
Visibilidad: 7000 m
Temporalmente
del 20 a las 00 UTC al 20 a las 07 UTC
Viento 3 kt con dirección variable
Visibilidad: 4000 m
calima

TAF: OKBK 192245Z 2000/2106 35008KT 7000 NSC TEMPO 2000/2007 VRB03KT 4000 HZ

Observaciones y pronósticos meteorológicos de más de 4000 aeropuertos (mensajes METAR y TAF).

Los puntos amarillos y rojos representan las estaciones disponibles.

Ponga el ratón en el punto deseado para ver el nombre de la estación.

Haga clic para ver las observaciones y los pronósticos meteorológicos.

Para cambiar el mapa : haga clic en los botones verdes con una cruz de color negro para hacer un zoom, en el botón verde con un guión para alejar o en las flechas verdes para mapas adyacentes.


METAR-TAF: